LPPS/PXO METAR and TAF weather

Enter ICAO airport designator
Station Type Date Time Source
LPPS METAR 2020/06/05 13:00 UTC NOAA

LPPS 051300Z 12009KT 9999 -RA SCT012 20/18 Q1014


Station Type Date Time Source
LPPS Decoded METAR 2020/06/05 13:00 UTC NOAA

Porto Santo, Portugal (LPPS) 33-04N 016-21W 82M
Jun 05, 2020 - 09:00 AM EDT / 2020.06.05 1300 UTC
Wind: from the ESE (120 degrees) at 10 MPH (9 KT):0
Visibility: greater than 7 mile(s):0
Sky conditions: partly cloudy
Weather: light rain
Temperature: 68 F (20 C)
Dew Point: 64 F (18 C)
Relative Humidity: 88%
Pressure (altimeter): 29.94 in. Hg (1014 hPa)
ob: LPPS 051300Z 12009KT 9999 -RA SCT012 20/18 Q1014
cycle: 13

Station Type Date Time Source
LPPS TAF 2020/06/05 12:18 UTC NOAA

TAF LPPS 051100Z 0512/0618 12010KT 9999 SCT012 BKN033
TEMPO 0512/0517 VRB08KT
TEMPO 0514/0519 5000 RA BR SCT005 BKN010 PROB30
TEMPO 0514/0519 2000 +TSRA FEW015CB
BECMG 0517/0519 17013KT
BECMG 0520/0522 21013KT SCT012
TEMPO 0522/0608 8000 SHRA BKN012 FEW020CB

Example: see airport list